sensor_id;sensor_type;location;lat;lon;timestamp;P1;durP1;ratioP1;P2;durP2;ratioP2
70253;SDS011;57649;42.968;1.608;2022-10-16T00:01:55;6.15;;;2.30;;
70253;SDS011;57649;42.968;1.608;2022-10-16T00:04:20;5.43;;;2.35;;
70253;SDS011;57649;42.968;1.608;2022-10-16T00:06:46;4.25;;;2.40;;
70253;SDS011;57649;42.968;1.608;2022-10-16T00:09:11;3.10;;;2.42;;
70253;SDS011;57649;42.968;1.608;2022-10-16T00:11:37;6.10;;;2.65;;
70253;SDS011;57649;42.968;1.608;2022-10-16T00:14:05;3.42;;;2.50;;
70253;SDS011;57649;42.968;1.608;2022-10-16T00:16:36;6.30;;;2.28;;
70253;SDS011;57649;42.968;1.608;2022-10-16T00:19:02;3.80;;;2.45;;
70253;SDS011;57649;42.968;1.608;2022-10-16T00:21:28;3.42;;;2.25;;
70253;SDS011;57649;42.968;1.608;2022-10-16T00:23:56;3.85;;;2.10;;
70253;SDS011;57649;42.968;1.608;2022-10-16T00:26:24;3.28;;;2.03;;
70253;SDS011;57649;42.968;1.608;2022-10-16T00:28:52;2.67;;;2.13;;
70253;SDS011;57649;42.968;1.608;2022-10-16T00:31:18;3.50;;;2.28;;
70253;SDS011;57649;42.968;1.608;2022-10-16T00:33:45;2.70;;;2.08;;
70253;SDS011;57649;42.968;1.608;2022-10-16T00:36:13;3.83;;;2.20;;
70253;SDS011;57649;42.968;1.608;2022-10-16T00:38:41;3.10;;;2.15;;
70253;SDS011;57649;42.968;1.608;2022-10-16T00:41:09;4.43;;;1.90;;
70253;SDS011;57649;42.968;1.608;2022-10-16T00:46:21;5.15;;;2.20;;
70253;SDS011;57649;42.968;1.608;2022-10-16T00:48:52;3.17;;;1.80;;
70253;SDS011;57649;42.968;1.608;2022-10-16T00:51:33;3.30;;;2.00;;
70253;SDS011;57649;42.968;1.608;2022-10-16T00:54:12;3.75;;;1.85;;
70253;SDS011;57649;42.968;1.608;2022-10-16T00:56:41;6.50;;;2.22;;
70253;SDS011;57649;42.968;1.608;2022-10-16T00:59:14;4.82;;;1.63;;
70253;SDS011;57649;42.968;1.608;2022-10-16T01:01:45;3.38;;;1.80;;
70253;SDS011;57649;42.968;1.608;2022-10-16T01:04:11;2.88;;;2.10;;
70253;SDS011;57649;42.968;1.608;2022-10-16T01:06:46;3.53;;;1.90;;
70253;SDS011;57649;42.968;1.608;2022-10-16T01:09:26;3.42;;;1.85;;
70253;SDS011;57649;42.968;1.608;2022-10-16T01:22:33;3.85;;;1.67;;
70253;SDS011;57649;42.968;1.608;2022-10-16T01:25:05;3.92;;;1.90;;
70253;SDS011;57649;42.968;1.608;2022-10-16T01:27:36;4.03;;;2.25;;
70253;SDS011;57649;42.968;1.608;2022-10-16T01:30:10;3.85;;;2.00;;
70253;SDS011;57649;42.968;1.608;2022-10-16T01:32:50;3.45;;;2.03;;
70253;SDS011;57649;42.968;1.608;2022-10-16T01:37:59;5.25;;;1.85;;
70253;SDS011;57649;42.968;1.608;2022-10-16T01:40:28;3.85;;;1.63;;
70253;SDS011;57649;42.968;1.608;2022-10-16T01:43:08;2.22;;;1.70;;
70253;SDS011;57649;42.968;1.608;2022-10-16T01:45:38;3.53;;;1.80;;
70253;SDS011;57649;42.968;1.608;2022-10-16T01:48:06;3.25;;;1.67;;
70253;SDS011;57649;42.968;1.608;2022-10-16T01:50:35;5.57;;;1.90;;
70253;SDS011;57649;42.968;1.608;2022-10-16T01:55:32;2.72;;;1.70;;
70253;SDS011;57649;42.968;1.608;2022-10-16T01:58:02;3.50;;;1.80;;
70253;SDS011;57649;42.968;1.608;2022-10-16T02:00:32;2.65;;;2.00;;
70253;SDS011;57649;42.968;1.608;2022-10-16T02:02:57;3.17;;;1.67;;
70253;SDS011;57649;42.968;1.608;2022-10-16T02:05:44;5.13;;;2.22;;
70253;SDS011;57649;42.968;1.608;2022-10-16T02:08:11;3.35;;;1.95;;
70253;SDS011;57649;42.968;1.608;2022-10-16T02:10:37;2.70;;;1.73;;
70253;SDS011;57649;42.968;1.608;2022-10-16T02:13:06;3.05;;;1.80;;
70253;SDS011;57649;42.968;1.608;2022-10-16T02:15:35;3.17;;;1.88;;
70253;SDS011;57649;42.968;1.608;2022-10-16T02:18:01;2.40;;;1.80;;
70253;SDS011;57649;42.968;1.608;2022-10-16T02:20:28;2.38;;;1.83;;
70253;SDS011;57649;42.968;1.608;2022-10-16T02:22:59;3.15;;;1.92;;
70253;SDS011;57649;42.968;1.608;2022-10-16T02:27:59;2.70;;;1.90;;
70253;SDS011;57649;42.968;1.608;2022-10-16T02:30:47;2.33;;;1.50;;
70253;SDS011;57649;42.968;1.608;2022-10-16T02:33:21;7.35;;;2.10;;
70253;SDS011;57649;42.968;1.608;2022-10-16T02:35:47;5.95;;;2.00;;
70253;SDS011;57649;42.968;1.608;2022-10-16T02:38:15;6.82;;;2.10;;
70253;SDS011;57649;42.968;1.608;2022-10-16T02:40:42;3.35;;;1.80;;
70253;SDS011;57649;42.968;1.608;2022-10-16T02:43:08;2.63;;;1.60;;
70253;SDS011;57649;42.968;1.608;2022-10-16T02:45:34;2.53;;;1.60;;
70253;SDS011;57649;42.968;1.608;2022-10-16T02:48:00;2.30;;;1.50;;
70253;SDS011;57649;42.968;1.608;2022-10-16T02:50:25;3.42;;;1.70;;
70253;SDS011;57649;42.968;1.608;2022-10-16T02:52:51;3.20;;;1.60;;
70253;SDS011;57649;42.968;1.608;2022-10-16T02:55:17;2.00;;;1.63;;
70253;SDS011;57649;42.968;1.608;2022-10-16T02:57:42;3.03;;;2.05;;
70253;SDS011;57649;42.968;1.608;2022-10-16T03:00:09;2.80;;;2.03;;
70253;SDS011;57649;42.968;1.608;2022-10-16T03:02:37;3.45;;;2.00;;
70253;SDS011;57649;42.968;1.608;2022-10-16T03:05:02;4.88;;;2.10;;
70253;SDS011;57649;42.968;1.608;2022-10-16T03:07:28;3.70;;;1.50;;
70253;SDS011;57649;42.968;1.608;2022-10-16T03:09:53;2.30;;;1.70;;
70253;SDS011;57649;42.968;1.608;2022-10-16T03:12:20;2.03;;;1.60;;
70253;SDS011;57649;42.968;1.608;2022-10-16T03:14:46;2.38;;;1.60;;
70253;SDS011;57649;42.968;1.608;2022-10-16T03:17:11;3.55;;;1.73;;
70253;SDS011;57649;42.968;1.608;2022-10-16T03:19:38;4.50;;;1.70;;
70253;SDS011;57649;42.968;1.608;2022-10-16T03:22:03;2.47;;;1.80;;
70253;SDS011;57649;42.968;1.608;2022-10-16T03:24:29;3.15;;;1.50;;
70253;SDS011;57649;42.968;1.608;2022-10-16T03:26:54;4.57;;;1.60;;
70253;SDS011;57649;42.968;1.608;2022-10-16T03:29:20;2.65;;;1.52;;
70253;SDS011;57649;42.968;1.608;2022-10-16T03:31:45;5.18;;;1.60;;
70253;SDS011;57649;42.968;1.608;2022-10-16T03:34:13;4.38;;;1.95;;
70253;SDS011;57649;42.968;1.608;2022-10-16T03:36:38;3.30;;;1.70;;
70253;SDS011;57649;42.968;1.608;2022-10-16T03:39:04;2.60;;;1.70;;
70253;SDS011;57649;42.968;1.608;2022-10-16T03:41:29;3.78;;;1.80;;
70253;SDS011;57649;42.968;1.608;2022-10-16T03:43:55;4.20;;;1.65;;
70253;SDS011;57649;42.968;1.608;2022-10-16T03:46:20;4.00;;;1.65;;
70253;SDS011;57649;42.968;1.608;2022-10-16T03:48:45;3.55;;;1.77;;
70253;SDS011;57649;42.968;1.608;2022-10-16T03:51:11;2.53;;;1.70;;
70253;SDS011;57649;42.968;1.608;2022-10-16T03:53:36;2.40;;;1.80;;
70253;SDS011;57649;42.968;1.608;2022-10-16T03:56:02;3.42;;;1.90;;
70253;SDS011;57649;42.968;1.608;2022-10-16T03:58:27;4.13;;;2.38;;
70253;SDS011;57649;42.968;1.608;2022-10-16T04:00:53;4.00;;;1.88;;
70253;SDS011;57649;42.968;1.608;2022-10-16T04:03:18;2.47;;;1.65;;
70253;SDS011;57649;42.968;1.608;2022-10-16T04:05:44;3.55;;;1.60;;
70253;SDS011;57649;42.968;1.608;2022-10-16T04:08:09;2.92;;;1.65;;
70253;SDS011;57649;42.968;1.608;2022-10-16T04:10:35;3.03;;;1.60;;
70253;SDS011;57649;42.968;1.608;2022-10-16T04:13:00;1.70;;;1.50;;
70253;SDS011;57649;42.968;1.608;2022-10-16T04:15:25;3.90;;;1.67;;
70253;SDS011;57649;42.968;1.608;2022-10-16T04:17:51;2.28;;;1.52;;
70253;SDS011;57649;42.968;1.608;2022-10-16T04:20:17;2.85;;;1.70;;
70253;SDS011;57649;42.968;1.608;2022-10-16T04:22:43;5.10;;;1.88;;
70253;SDS011;57649;42.968;1.608;2022-10-16T04:25:08;2.78;;;1.65;;
70253;SDS011;57649;42.968;1.608;2022-10-16T04:27:34;4.05;;;1.85;;
70253;SDS011;57649;42.968;1.608;2022-10-16T04:29:59;2.33;;;1.50;;
70253;SDS011;57649;42.968;1.608;2022-10-16T04:32:25;3.83;;;1.90;;
70253;SDS011;57649;42.968;1.608;2022-10-16T04:34:51;3.65;;;1.77;;
70253;SDS011;57649;42.968;1.608;2022-10-16T04:37:16;3.55;;;1.80;;
70253;SDS011;57649;42.968;1.608;2022-10-16T04:39:42;3.45;;;1.88;;
70253;SDS011;57649;42.968;1.608;2022-10-16T04:42:07;5.30;;;3.58;;
70253;SDS011;57649;42.968;1.608;2022-10-16T04:44:32;3.05;;;2.15;;
70253;SDS011;57649;42.968;1.608;2022-10-16T04:46:58;3.42;;;1.70;;
70253;SDS011;57649;42.968;1.608;2022-10-16T04:49:23;4.50;;;1.70;;
70253;SDS011;57649;42.968;1.608;2022-10-16T04:51:49;3.55;;;1.75;;
70253;SDS011;57649;42.968;1.608;2022-10-16T04:54:14;4.25;;;1.90;;
70253;SDS011;57649;42.968;1.608;2022-10-16T04:56:40;2.75;;;1.80;;
70253;SDS011;57649;42.968;1.608;2022-10-16T04:59:08;2.78;;;1.60;;
70253;SDS011;57649;42.968;1.608;2022-10-16T05:01:34;3.25;;;1.80;;
70253;SDS011;57649;42.968;1.608;2022-10-16T05:04:00;3.60;;;1.85;;
70253;SDS011;57649;42.968;1.608;2022-10-16T05:06:25;4.07;;;1.60;;
70253;SDS011;57649;42.968;1.608;2022-10-16T05:08:51;2.65;;;1.83;;
70253;SDS011;57649;42.968;1.608;2022-10-16T05:11:16;4.47;;;2.13;;
70253;SDS011;57649;42.968;1.608;2022-10-16T05:13:41;2.45;;;1.80;;
70253;SDS011;57649;42.968;1.608;2022-10-16T05:16:07;3.53;;;1.67;;
70253;SDS011;57649;42.968;1.608;2022-10-16T05:18:32;3.22;;;1.75;;
70253;SDS011;57649;42.968;1.608;2022-10-16T05:20:58;1.88;;;1.63;;
70253;SDS011;57649;42.968;1.608;2022-10-16T05:23:23;2.13;;;1.60;;
70253;SDS011;57649;42.968;1.608;2022-10-16T05:25:55;4.63;;;1.90;;
70253;SDS011;57649;42.968;1.608;2022-10-16T05:28:23;2.90;;;2.10;;
70253;SDS011;57649;42.968;1.608;2022-10-16T05:30:50;3.75;;;1.60;;
70253;SDS011;57649;42.968;1.608;2022-10-16T05:33:15;6.15;;;1.60;;
70253;SDS011;57649;42.968;1.608;2022-10-16T05:35:41;2.60;;;1.58;;
70253;SDS011;57649;42.968;1.608;2022-10-16T05:38:07;4.25;;;1.80;;
70253;SDS011;57649;42.968;1.608;2022-10-16T05:40:32;3.20;;;1.60;;
70253;SDS011;57649;42.968;1.608;2022-10-16T05:42:58;4.57;;;1.90;;
70253;SDS011;57649;42.968;1.608;2022-10-16T05:45:23;3.60;;;2.13;;
70253;SDS011;57649;42.968;1.608;2022-10-16T05:47:49;4.07;;;1.50;;
70253;SDS011;57649;42.968;1.608;2022-10-16T05:50:14;2.72;;;1.70;;
70253;SDS011;57649;42.968;1.608;2022-10-16T05:52:39;2.38;;;1.70;;
70253;SDS011;57649;42.968;1.608;2022-10-16T05:55:05;2.15;;;1.55;;
70253;SDS011;57649;42.968;1.608;2022-10-16T05:57:31;1.90;;;1.35;;
70253;SDS011;57649;42.968;1.608;2022-10-16T05:59:56;2.90;;;1.95;;
70253;SDS011;57649;42.968;1.608;2022-10-16T06:02:21;2.60;;;1.63;;
70253;SDS011;57649;42.968;1.608;2022-10-16T06:04:47;2.40;;;1.90;;
70253;SDS011;57649;42.968;1.608;2022-10-16T06:07:13;5.05;;;1.90;;
70253;SDS011;57649;42.968;1.608;2022-10-16T06:09:38;1.85;;;1.50;;
70253;SDS011;57649;42.968;1.608;2022-10-16T06:12:03;4.75;;;1.77;;
70253;SDS011;57649;42.968;1.608;2022-10-16T06:14:29;3.38;;;1.70;;
70253;SDS011;57649;42.968;1.608;2022-10-16T06:16:54;1.80;;;1.58;;
70253;SDS011;57649;42.968;1.608;2022-10-16T06:19:20;5.65;;;2.10;;
70253;SDS011;57649;42.968;1.608;2022-10-16T06:21:45;6.18;;;2.33;;
70253;SDS011;57649;42.968;1.608;2022-10-16T06:24:11;2.90;;;2.15;;
70253;SDS011;57649;42.968;1.608;2022-10-16T06:26:36;2.97;;;1.60;;
70253;SDS011;57649;42.968;1.608;2022-10-16T06:29:02;2.60;;;1.80;;
70253;SDS011;57649;42.968;1.608;2022-10-16T06:31:27;3.80;;;1.80;;
70253;SDS011;57649;42.968;1.608;2022-10-16T06:33:56;3.92;;;1.90;;
70253;SDS011;57649;42.968;1.608;2022-10-16T06:36:22;4.70;;;1.55;;
70253;SDS011;57649;42.968;1.608;2022-10-16T06:38:49;4.53;;;1.88;;
70253;SDS011;57649;42.968;1.608;2022-10-16T06:41:16;6.63;;;1.90;;
70253;SDS011;57649;42.968;1.608;2022-10-16T06:43:43;2.95;;;1.70;;
70253;SDS011;57649;42.968;1.608;2022-10-16T06:46:13;8.55;;;2.00;;
70253;SDS011;57649;42.968;1.608;2022-10-16T06:48:40;5.82;;;1.90;;
70253;SDS011;57649;42.968;1.608;2022-10-16T06:51:06;5.05;;;2.10;;
70253;SDS011;57649;42.968;1.608;2022-10-16T06:53:33;4.38;;;1.95;;
70253;SDS011;57649;42.968;1.608;2022-10-16T06:56:06;3.67;;;2.13;;
70253;SDS011;57649;42.968;1.608;2022-10-16T06:58:39;4.35;;;1.88;;
70253;SDS011;57649;42.968;1.608;2022-10-16T07:01:05;4.10;;;2.30;;
70253;SDS011;57649;42.968;1.608;2022-10-16T07:03:31;2.95;;;1.90;;
70253;SDS011;57649;42.968;1.608;2022-10-16T07:05:56;2.33;;;1.70;;
70253;SDS011;57649;42.968;1.608;2022-10-16T07:08:22;4.18;;;2.05;;
70253;SDS011;57649;42.968;1.608;2022-10-16T07:10:47;5.32;;;2.00;;
70253;SDS011;57649;42.968;1.608;2022-10-16T07:13:13;3.40;;;2.45;;
70253;SDS011;57649;42.968;1.608;2022-10-16T07:15:39;3.95;;;1.98;;
70253;SDS011;57649;42.968;1.608;2022-10-16T07:18:06;3.20;;;2.00;;
70253;SDS011;57649;42.968;1.608;2022-10-16T07:20:32;3.90;;;1.88;;
70253;SDS011;57649;42.968;1.608;2022-10-16T07:22:57;3.00;;;1.88;;
70253;SDS011;57649;42.968;1.608;2022-10-16T07:25:23;2.90;;;1.90;;
70253;SDS011;57649;42.968;1.608;2022-10-16T07:27:48;3.03;;;2.08;;
70253;SDS011;57649;42.968;1.608;2022-10-16T07:30:13;3.53;;;1.88;;
70253;SDS011;57649;42.968;1.608;2022-10-16T07:32:39;5.82;;;2.00;;
70253;SDS011;57649;42.968;1.608;2022-10-16T07:35:05;4.65;;;1.98;;
70253;SDS011;57649;42.968;1.608;2022-10-16T07:37:30;3.33;;;1.65;;
70253;SDS011;57649;42.968;1.608;2022-10-16T07:39:56;4.32;;;1.80;;
70253;SDS011;57649;42.968;1.608;2022-10-16T07:42:21;4.75;;;2.65;;
70253;SDS011;57649;42.968;1.608;2022-10-16T07:44:47;3.25;;;1.80;;
70253;SDS011;57649;42.968;1.608;2022-10-16T07:47:12;4.65;;;1.77;;
70253;SDS011;57649;42.968;1.608;2022-10-16T07:49:37;4.25;;;2.15;;
70253;SDS011;57649;42.968;1.608;2022-10-16T07:52:03;4.88;;;1.70;;
70253;SDS011;57649;42.968;1.608;2022-10-16T07:54:28;3.45;;;1.77;;
70253;SDS011;57649;42.968;1.608;2022-10-16T07:56:54;3.22;;;1.70;;
70253;SDS011;57649;42.968;1.608;2022-10-16T07:59:19;5.57;;;2.00;;
70253;SDS011;57649;42.968;1.608;2022-10-16T08:01:45;4.72;;;1.70;;
70253;SDS011;57649;42.968;1.608;2022-10-16T08:04:10;2.67;;;1.83;;
70253;SDS011;57649;42.968;1.608;2022-10-16T08:06:36;4.47;;;1.60;;
70253;SDS011;57649;42.968;1.608;2022-10-16T08:09:03;3.85;;;1.52;;
70253;SDS011;57649;42.968;1.608;2022-10-16T08:11:29;4.97;;;1.55;;
70253;SDS011;57649;42.968;1.608;2022-10-16T08:13:54;5.18;;;1.65;;
70253;SDS011;57649;42.968;1.608;2022-10-16T08:16:20;2.88;;;1.70;;
70253;SDS011;57649;42.968;1.608;2022-10-16T08:18:45;3.05;;;1.40;;
70253;SDS011;57649;42.968;1.608;2022-10-16T08:21:15;4.55;;;1.70;;
70253;SDS011;57649;42.968;1.608;2022-10-16T08:23:42;2.78;;;1.70;;
70253;SDS011;57649;42.968;1.608;2022-10-16T08:26:08;3.10;;;1.83;;
70253;SDS011;57649;42.968;1.608;2022-10-16T08:28:34;6.72;;;1.80;;
70253;SDS011;57649;42.968;1.608;2022-10-16T08:33:33;3.80;;;1.73;;
70253;SDS011;57649;42.968;1.608;2022-10-16T08:36:00;4.35;;;1.80;;
70253;SDS011;57649;42.968;1.608;2022-10-16T08:38:26;7.43;;;2.85;;
70253;SDS011;57649;42.968;1.608;2022-10-16T08:40:51;3.97;;;1.80;;
70253;SDS011;57649;42.968;1.608;2022-10-16T08:51:06;2.42;;;1.60;;
70253;SDS011;57649;42.968;1.608;2022-10-16T08:53:38;5.82;;;2.38;;
70253;SDS011;57649;42.968;1.608;2022-10-16T08:58:35;2.85;;;2.10;;
70253;SDS011;57649;42.968;1.608;2022-10-16T09:01:04;6.53;;;2.30;;
70253;SDS011;57649;42.968;1.608;2022-10-16T09:06:29;3.80;;;2.42;;
70253;SDS011;57649;42.968;1.608;2022-10-16T09:11:57;3.20;;;2.08;;
70253;SDS011;57649;42.968;1.608;2022-10-16T09:22:38;5.93;;;2.35;;
70253;SDS011;57649;42.968;1.608;2022-10-16T09:25:12;4.70;;;2.78;;
70253;SDS011;57649;42.968;1.608;2022-10-16T09:27:39;5.35;;;2.50;;
70253;SDS011;57649;42.968;1.608;2022-10-16T09:30:12;3.00;;;2.50;;
70253;SDS011;57649;42.968;1.608;2022-10-16T09:32:40;6.05;;;2.80;;
70253;SDS011;57649;42.968;1.608;2022-10-16T09:35:09;4.93;;;3.00;;
70253;SDS011;57649;42.968;1.608;2022-10-16T09:37:39;2.92;;;2.53;;
70253;SDS011;57649;42.968;1.608;2022-10-16T09:40:12;5.18;;;2.72;;
70253;SDS011;57649;42.968;1.608;2022-10-16T09:42:38;3.95;;;2.30;;
70253;SDS011;57649;42.968;1.608;2022-10-16T09:45:04;3.70;;;2.85;;
70253;SDS011;57649;42.968;1.608;2022-10-16T09:47:31;4.10;;;2.90;;
70253;SDS011;57649;42.968;1.608;2022-10-16T09:50:02;3.85;;;2.72;;
70253;SDS011;57649;42.968;1.608;2022-10-16T09:52:31;5.38;;;2.97;;
70253;SDS011;57649;42.968;1.608;2022-10-16T09:54:59;4.00;;;2.80;;
70253;SDS011;57649;42.968;1.608;2022-10-16T09:57:27;6.10;;;2.50;;
70253;SDS011;57649;42.968;1.608;2022-10-16T09:59:53;2.80;;;2.20;;
70253;SDS011;57649;42.968;1.608;2022-10-16T10:02:31;4.10;;;2.38;;
70253;SDS011;57649;42.968;1.608;2022-10-16T10:05:00;3.67;;;2.30;;
70253;SDS011;57649;42.968;1.608;2022-10-16T10:07:38;5.50;;;2.97;;
70253;SDS011;57649;42.968;1.608;2022-10-16T10:10:19;4.22;;;2.90;;
70253;SDS011;57649;42.968;1.608;2022-10-16T10:12:47;5.57;;;3.00;;
70253;SDS011;57649;42.968;1.608;2022-10-16T10:15:13;3.88;;;3.03;;
70253;SDS011;57649;42.968;1.608;2022-10-16T10:17:48;3.30;;;2.60;;
70253;SDS011;57649;42.968;1.608;2022-10-16T10:22:53;6.32;;;3.60;;
70253;SDS011;57649;42.968;1.608;2022-10-16T10:33:25;5.20;;;3.13;;
70253;SDS011;57649;42.968;1.608;2022-10-16T10:38:31;7.78;;;3.78;;
70253;SDS011;57649;42.968;1.608;2022-10-16T10:41:14;4.72;;;2.95;;
70253;SDS011;57649;42.968;1.608;2022-10-16T10:46:57;4.47;;;3.20;;
70253;SDS011;57649;42.968;1.608;2022-10-16T10:54:54;6.68;;;3.10;;
70253;SDS011;57649;42.968;1.608;2022-10-16T11:03:17;4.10;;;3.45;;
70253;SDS011;57649;42.968;1.608;2022-10-16T11:05:50;11.73;;;3.33;;
70253;SDS011;57649;42.968;1.608;2022-10-16T11:08:35;5.35;;;3.15;;
70253;SDS011;57649;42.968;1.608;2022-10-16T11:11:17;10.52;;;3.10;;
70253;SDS011;57649;42.968;1.608;2022-10-16T11:14:10;3.97;;;2.80;;
70253;SDS011;57649;42.968;1.608;2022-10-16T11:16:42;4.10;;;2.70;;
70253;SDS011;57649;42.968;1.608;2022-10-16T11:22:01;4.50;;;2.90;;
70253;SDS011;57649;42.968;1.608;2022-10-16T11:30:22;6.20;;;3.22;;
70253;SDS011;57649;42.968;1.608;2022-10-16T11:38:29;4.20;;;2.85;;
70253;SDS011;57649;42.968;1.608;2022-10-16T11:41:18;7.30;;;3.13;;
70253;SDS011;57649;42.968;1.608;2022-10-16T11:43:52;5.07;;;3.15;;
70253;SDS011;57649;42.968;1.608;2022-10-16T11:46:40;5.15;;;4.03;;
70253;SDS011;57649;42.968;1.608;2022-10-16T11:49:13;5.07;;;3.17;;
70253;SDS011;57649;42.968;1.608;2022-10-16T11:51:48;12.68;;;3.70;;
70253;SDS011;57649;42.968;1.608;2022-10-16T11:54:27;5.50;;;3.85;;
70253;SDS011;57649;42.968;1.608;2022-10-16T11:56:57;9.55;;;3.70;;
70253;SDS011;57649;42.968;1.608;2022-10-16T12:02:00;4.68;;;3.30;;
70253;SDS011;57649;42.968;1.608;2022-10-16T12:07:11;6.85;;;3.63;;
70253;SDS011;57649;42.968;1.608;2022-10-16T12:09:43;5.78;;;3.15;;
70253;SDS011;57649;42.968;1.608;2022-10-16T12:12:28;5.53;;;4.00;;
70253;SDS011;57649;42.968;1.608;2022-10-16T12:15:17;6.20;;;3.75;;
70253;SDS011;57649;42.968;1.608;2022-10-16T12:17:46;6.05;;;3.35;;
70253;SDS011;57649;42.968;1.608;2022-10-16T12:22:41;7.25;;;3.65;;
70253;SDS011;57649;42.968;1.608;2022-10-16T12:25:53;7.18;;;3.67;;
70253;SDS011;57649;42.968;1.608;2022-10-16T12:30:40;6.10;;;3.08;;
70253;SDS011;57649;42.968;1.608;2022-10-16T12:33:20;5.10;;;3.10;;
70253;SDS011;57649;42.968;1.608;2022-10-16T12:35:54;7.38;;;3.13;;
70253;SDS011;57649;42.968;1.608;2022-10-16T12:41:03;6.90;;;3.40;;
70253;SDS011;57649;42.968;1.608;2022-10-16T12:48:34;7.77;;;3.10;;
70253;SDS011;57649;42.968;1.608;2022-10-16T12:51:11;6.30;;;3.42;;
70253;SDS011;57649;42.968;1.608;2022-10-16T12:54:04;10.95;;;3.47;;
70253;SDS011;57649;42.968;1.608;2022-10-16T13:05:30;6.13;;;3.33;;
70253;SDS011;57649;42.968;1.608;2022-10-16T13:08:02;7.88;;;3.55;;
70253;SDS011;57649;42.968;1.608;2022-10-16T13:16:54;4.28;;;3.22;;
70253;SDS011;57649;42.968;1.608;2022-10-16T13:32:50;7.40;;;3.58;;
70253;SDS011;57649;42.968;1.608;2022-10-16T13:35:27;4.97;;;3.55;;
70253;SDS011;57649;42.968;1.608;2022-10-16T13:38:17;5.57;;;3.47;;
70253;SDS011;57649;42.968;1.608;2022-10-16T13:40:48;7.32;;;4.63;;
70253;SDS011;57649;42.968;1.608;2022-10-16T13:43:17;7.30;;;3.60;;
70253;SDS011;57649;42.968;1.608;2022-10-16T13:45:54;7.63;;;3.63;;
70253;SDS011;57649;42.968;1.608;2022-10-16T13:48:28;7.13;;;3.95;;
70253;SDS011;57649;42.968;1.608;2022-10-16T13:50:58;12.38;;;3.63;;
70253;SDS011;57649;42.968;1.608;2022-10-16T13:53:32;11.35;;;4.05;;
70253;SDS011;57649;42.968;1.608;2022-10-16T13:55:59;7.18;;;3.80;;
70253;SDS011;57649;42.968;1.608;2022-10-16T13:58:26;8.38;;;4.13;;
70253;SDS011;57649;42.968;1.608;2022-10-16T14:00:59;6.60;;;3.70;;
70253;SDS011;57649;42.968;1.608;2022-10-16T14:03:30;5.43;;;3.33;;
70253;SDS011;57649;42.968;1.608;2022-10-16T14:05:58;9.90;;;4.15;;
70253;SDS011;57649;42.968;1.608;2022-10-16T14:08:26;7.63;;;3.08;;
70253;SDS011;57649;42.968;1.608;2022-10-16T14:10:55;6.88;;;4.00;;
70253;SDS011;57649;42.968;1.608;2022-10-16T14:13:33;8.93;;;3.72;;
70253;SDS011;57649;42.968;1.608;2022-10-16T14:16:05;7.53;;;4.00;;
70253;SDS011;57649;42.968;1.608;2022-10-16T14:18:34;6.72;;;3.97;;
70253;SDS011;57649;42.968;1.608;2022-10-16T14:21:04;6.53;;;3.42;;
70253;SDS011;57649;42.968;1.608;2022-10-16T14:23:39;7.97;;;4.05;;
70253;SDS011;57649;42.968;1.608;2022-10-16T14:26:15;6.07;;;3.55;;
70253;SDS011;57649;42.968;1.608;2022-10-16T14:28:44;7.15;;;4.00;;
70253;SDS011;57649;42.968;1.608;2022-10-16T14:31:30;6.78;;;3.70;;
70253;SDS011;57649;42.968;1.608;2022-10-16T14:33:57;5.97;;;3.30;;
70253;SDS011;57649;42.968;1.608;2022-10-16T14:36:24;8.40;;;3.88;;
70253;SDS011;57649;42.968;1.608;2022-10-16T14:41:20;5.60;;;3.40;;
70253;SDS011;57649;42.968;1.608;2022-10-16T14:43:50;6.85;;;3.75;;
70253;SDS011;57649;42.968;1.608;2022-10-16T14:46:20;7.10;;;3.67;;
70253;SDS011;57649;42.968;1.608;2022-10-16T14:48:51;6.40;;;3.67;;
70253;SDS011;57649;42.968;1.608;2022-10-16T14:51:22;7.57;;;3.60;;
70253;SDS011;57649;42.968;1.608;2022-10-16T14:53:49;4.97;;;3.42;;
70253;SDS011;57649;42.968;1.608;2022-10-16T14:56:21;5.75;;;3.75;;
70253;SDS011;57649;42.968;1.608;2022-10-16T14:58:52;9.18;;;4.00;;
70253;SDS011;57649;42.968;1.608;2022-10-16T15:01:18;6.97;;;3.75;;
70253;SDS011;57649;42.968;1.608;2022-10-16T15:03:44;7.22;;;3.70;;
70253;SDS011;57649;42.968;1.608;2022-10-16T15:06:13;9.93;;;4.13;;
70253;SDS011;57649;42.968;1.608;2022-10-16T15:08:40;7.60;;;3.70;;
70253;SDS011;57649;42.968;1.608;2022-10-16T15:11:12;5.78;;;3.45;;
70253;SDS011;57649;42.968;1.608;2022-10-16T15:13:40;5.60;;;3.67;;
70253;SDS011;57649;42.968;1.608;2022-10-16T15:16:13;6.95;;;3.95;;
70253;SDS011;57649;42.968;1.608;2022-10-16T15:18:40;8.32;;;3.85;;
70253;SDS011;57649;42.968;1.608;2022-10-16T15:21:07;5.13;;;3.72;;
70253;SDS011;57649;42.968;1.608;2022-10-16T15:23:32;8.93;;;3.65;;
70253;SDS011;57649;42.968;1.608;2022-10-16T15:25:58;5.75;;;3.45;;
70253;SDS011;57649;42.968;1.608;2022-10-16T15:28:24;8.13;;;4.10;;
70253;SDS011;57649;42.968;1.608;2022-10-16T15:30:51;8.32;;;4.38;;
70253;SDS011;57649;42.968;1.608;2022-10-16T15:33:19;6.93;;;4.28;;
70253;SDS011;57649;42.968;1.608;2022-10-16T15:38:14;8.00;;;4.20;;
70253;SDS011;57649;42.968;1.608;2022-10-16T15:40:40;7.45;;;3.85;;
70253;SDS011;57649;42.968;1.608;2022-10-16T15:43:06;7.15;;;4.25;;
70253;SDS011;57649;42.968;1.608;2022-10-16T15:45:31;9.10;;;3.70;;
70253;SDS011;57649;42.968;1.608;2022-10-16T15:47:57;9.70;;;4.00;;
70253;SDS011;57649;42.968;1.608;2022-10-16T15:50:22;6.82;;;3.97;;
70253;SDS011;57649;42.968;1.608;2022-10-16T15:52:48;7.03;;;3.35;;
70253;SDS011;57649;42.968;1.608;2022-10-16T15:55:14;7.53;;;3.80;;
70253;SDS011;57649;42.968;1.608;2022-10-16T15:57:40;8.73;;;4.40;;
70253;SDS011;57649;42.968;1.608;2022-10-16T16:00:09;7.93;;;3.50;;
70253;SDS011;57649;42.968;1.608;2022-10-16T16:05:02;5.72;;;3.08;;
70253;SDS011;57649;42.968;1.608;2022-10-16T16:07:28;7.50;;;3.67;;
70253;SDS011;57649;42.968;1.608;2022-10-16T16:09:57;5.82;;;3.63;;
70253;SDS011;57649;42.968;1.608;2022-10-16T16:12:22;6.00;;;3.83;;
70253;SDS011;57649;42.968;1.608;2022-10-16T16:14:47;8.82;;;3.65;;
70253;SDS011;57649;42.968;1.608;2022-10-16T16:17:14;7.00;;;3.33;;
70253;SDS011;57649;42.968;1.608;2022-10-16T16:19:40;7.82;;;3.92;;
70253;SDS011;57649;42.968;1.608;2022-10-16T16:22:05;6.63;;;3.60;;
70253;SDS011;57649;42.968;1.608;2022-10-16T16:24:31;9.25;;;3.63;;
70253;SDS011;57649;42.968;1.608;2022-10-16T16:26:56;7.03;;;3.97;;
70253;SDS011;57649;42.968;1.608;2022-10-16T16:29:21;6.28;;;3.78;;
70253;SDS011;57649;42.968;1.608;2022-10-16T16:31:47;9.30;;;4.18;;
70253;SDS011;57649;42.968;1.608;2022-10-16T16:34:13;7.20;;;3.58;;
70253;SDS011;57649;42.968;1.608;2022-10-16T16:36:38;8.93;;;3.95;;
70253;SDS011;57649;42.968;1.608;2022-10-16T16:39:05;11.27;;;4.50;;
70253;SDS011;57649;42.968;1.608;2022-10-16T16:41:32;11.18;;;3.83;;
70253;SDS011;57649;42.968;1.608;2022-10-16T16:44:02;5.70;;;3.80;;
70253;SDS011;57649;42.968;1.608;2022-10-16T16:46:32;12.70;;;4.60;;
70253;SDS011;57649;42.968;1.608;2022-10-16T16:48:59;6.88;;;3.55;;
70253;SDS011;57649;42.968;1.608;2022-10-16T16:51:25;8.25;;;3.97;;
70253;SDS011;57649;42.968;1.608;2022-10-16T16:53:52;8.73;;;3.40;;
70253;SDS011;57649;42.968;1.608;2022-10-16T16:56:18;4.97;;;3.22;;
70253;SDS011;57649;42.968;1.608;2022-10-16T16:58:45;6.85;;;3.88;;
70253;SDS011;57649;42.968;1.608;2022-10-16T17:01:11;9.57;;;3.80;;
70253;SDS011;57649;42.968;1.608;2022-10-16T17:03:36;9.38;;;4.05;;
70253;SDS011;57649;42.968;1.608;2022-10-16T17:06:03;7.05;;;3.50;;
70253;SDS011;57649;42.968;1.608;2022-10-16T17:08:30;5.53;;;3.30;;
70253;SDS011;57649;42.968;1.608;2022-10-16T17:10:58;10.55;;;3.80;;
70253;SDS011;57649;42.968;1.608;2022-10-16T17:13:24;7.43;;;3.20;;
70253;SDS011;57649;42.968;1.608;2022-10-16T17:15:51;8.60;;;3.40;;
70253;SDS011;57649;42.968;1.608;2022-10-16T17:18:18;6.45;;;3.10;;
70253;SDS011;57649;42.968;1.608;2022-10-16T17:20:46;5.28;;;3.45;;